METAR Data
IDs: Format: Raw Decoded Include TAF

Data at: 1057 UTC 15 Dec 2018

PASO 151053Z AUTO 00000KT 5SM -SN BR BKN012 BKN018 OVC043 M04/M06 A2923 RMK AO2 SNE14B45 SLP899 P0000 T10441056 TSNO
PASO 151037Z AUTO VRB03KT 10SM BKN013 OVC045 M03/M05 A2923 RMK AO2 SNE14 P0000 T10331050 TSNO
PASO 151010Z AUTO 00000KT 3SM -SN BR FEW006 BKN031 OVC043 M04/M06 A2922 RMK AO2 P0000 T10391056 TSNO
PASO 151004Z AUTO 00000KT 2SM -SN BR FEW006 BKN014 OVC043 M04/M06 A2922 RMK AO2 P0000 T10391056 TSNO
PASO 150953Z AUTO 00000KT 1 1/2SM -SN BR OVC014 M04/M05 A2922 RMK AO2 SNB00 SLP895 P0004 T10391050 TSNO
PASO 150931Z AUTO 18003KT 3/4SM -SN BR VV012 M04/M06 A2922 RMK AO2 SNB00 P0002 T10391056 TSNO
PASO 150922Z AUTO 18003KT 2 1/2SM -SN BR OVC011 M03/M04 A2923 RMK AO2 SNB00 P0001 T10281044 TSNO
PASO 150904Z AUTO 01008KT 1 3/4SM -SN BR BKN013 M03/M05 A2921 RMK AO2 SNB00 P0000 T10331050 TSNO
PASO 150853Z AUTO 36006KT 6SM BR BKN013 BKN040 BKN070 M03/M06 A2921 RMK AO2 SNE37 SLP891 P0001 60009 T10331056 410331083 51013 TSNO
PASO 150829Z AUTO 00000KT 3SM -SN BR SCT013 BKN031 OVC070 M03/M04 A2921 RMK AO2 P0001 T10331044 TSNO
PASO 150819Z AUTO 35005KT 2SM -SN BR BKN013 BKN019 OVC038 M03/M05 A2921 RMK AO2 P0001 T10331050 TSNO
PASO 150753Z AUTO VRB05KT 1 1/2SM -SN BR FEW015 OVC022 M03/M06 A2920 RMK AO2 SLP889 P0002 T10331056 TSNO
PASO 150740Z AUTO 36008KT 3/4SM -SN BR BKN021 OVC037 M03/M06 A2920 RMK AO2 P0002 T10331056 TSNO
PASO 150715Z AUTO 36008KT 2 1/2SM -SN BR BKN023 OVC037 M04/M06 A2919 RMK AO2 P0001 T10391056 TSNO
PASO 150657Z AUTO 36005KT 1 1/4SM -SN BR OVC015 M04/M06 A2919 RMK AO2 P0000 T10391056 TSNO
PASO 150653Z AUTO VRB05KT 3/4SM -SN BR VV011 M04/M06 A2919 RMK AO2 SLP885 P0006 T10391056 TSNO
PASO 150628Z AUTO 36007KT 1/2SM SN FZFG VV008 M04/M06 A2919 RMK AO2 P0004 T10391056 TSNO
PASO 150600Z AUTO 35005KT 3/4SM -SN BR VV012 M04/M06 A2917 RMK AO2 P0001 T10391056 TSNO
PASO 150553Z AUTO 35004KT 1SM -SN BR VV012 M04/M06 A2917 RMK AO2 SLP879 P0004 60018 T10391056 11033 21039 52003 TSNO
PASO 150526Z AUTO 35005KT 3/4SM -SN BR VV013 M04/M06 A2917 RMK AO2 P0003 T10391061 TSNO
PASO 150514Z AUTO 35007KT 1SM -SN BR VV015 M04/M06 A2917 RMK AO2 P0002 T10391061 TSNO
PASO 150511Z AUTO 36007KT 3/4SM -SN BR VV013 M04/M06 A2917 RMK AO2 P0002 T10391061 TSNO
PASO 150453Z AUTO 36009KT 1/2SM SN FZFG VV008 M04/M06 A2917 RMK AO2 SLP879 P0005 T10391061 TSNO
PASO 150445Z AUTO 36009KT 1/2SM SN FZFG VV009 M04/M06 A2917 RMK AO2 P0004 T10391056 TSNO
PASO 150416Z AUTO 35008KT 3/4SM -SN BR VV014 M04/M06 A2916 RMK AO2 P0001 T10391056 TSNO
PASO 150353Z AUTO 36010G19KT 1SM -SN BR VV013 M03/M06 A2916 RMK AO2 SLP876 P0003 T10331056 TSNO
PASO 150336Z AUTO 34008KT 310V020 3/4SM -SN BR VV011 M04/M06 A2916 RMK AO2 P0002 T10391056 TSNO
PASO 150253Z AUTO 34007KT 300V010 1SM -SN BR VV014 M04/M06 A2916 RMK AO2 SLP876 P0003 60006 T10391061 53001 TSNO
PASO 150238Z AUTO 35007KT 1SM -SN VV013 M04/M07 A2916 RMK AO2 P0002 T10391067 TSNO
PASO 150230Z AUTO VRB05KT 3/4SM -SN VV013 M04/M07 A2916 RMK AO2 P0001 T10391067 TSNO
PASO 150223Z AUTO VRB06KT 1SM -SN VV013 M04/M07 A2916 RMK AO2 P0001 T10391067 TSNO
PASO 150153Z AUTO VRB06KT 1SM -SN VV019 M04/M07 A2916 RMK AO2 SLP874 P0002 T10391067 TSNO
PASO 150144Z AUTO 01007KT 340V070 1 3/4SM -SN OVC028 M04/M07 A2916 RMK AO2 P0001 T10391067 TSNO
PASO 150133Z AUTO 35006KT 2SM -SN BR BKN036 OVC048 M04/M06 A2916 RMK AO2 P0001 T10391061 TSNO
PASO 150120Z AUTO 35007KT 310V030 3SM -SN FEW014 OVC048 M04/M07 A2916 RMK AO2 P0001 T10391067 TSNO
PASO 150112Z AUTO 35007KT 2 1/2SM -SN FEW014 OVC048 M04/M07 A2916 RMK AO2 P0001 T10391067 TSNO
PASO 150053Z AUTO VRB04KT 3SM -SN BR FEW014 OVC048 M04/M06 A2916 RMK AO2 SLP874 P0001 T10391061 TSNO
PASO 150049Z AUTO 36007KT 3SM -SN FEW014 BKN038 OVC050 M04/M07 A2916 RMK AO2 P0001 TSNO
PASO 150040Z AUTO 35007KT 2SM -SN BR BKN031 OVC050 M04/M06 A2916 RMK AO2 P0001 T10391061 TSNO
PASO 150018Z AUTO 35006KT 1SM -SN BR OVC021 M04/M06 A2916 RMK AO2 P0001 T10391061 TSNO
PASO 150000Z AUTO 01007KT 1/2SM SN FZFG VV016 M04/M06 A2917 RMK AO2 P0000 T10391061 TSNO
PASO 142353Z AUTO 36008KT 1/2SM SN FZFG VV014 M04/M06 A2917 RMK AO2 SLP877 P0003 60003 T10391061 11039 21083 58016 TSNO
PASO 142319Z AUTO VRB05KT 1/2SM SN FZFG VV013 M04/M06 A2917 RMK AO2 P0001 T10391061 TSNO
PASO 142302Z AUTO 34005KT 3/4SM -SN VV019 M04/M07 A2918 RMK AO2 P0000 T10391067 TSNO
PASO 142253Z AUTO VRB04KT 1SM -SN BKN024 OVC043 M04/M07 A2918 RMK AO2 SLP882 P0000 T10391067 TSNO
PASO 142233Z AUTO VRB04KT 1 1/2SM -SN FEW016 SCT035 OVC046 M04/M07 A2919 RMK AO2 P0000 T10391067 TSNO
PASO 142224Z AUTO 36008KT 330V040 2SM -SN OVC045 M04/M07 A2919 RMK AO2 P0000 T10391067 TSNO
PASO 142216Z AUTO VRB05KT 3SM -SN BR OVC047 M04/M06 A2919 RMK AO2 P0000 T10391061 TSNO
PASO 142200Z AUTO 35005KT 2 1/2SM -SN OVC046 M04/M07 A2920 RMK AO2 P0000 T10391067 TSNO
PASO 142153Z AUTO VRB06KT 3SM -SN OVC046 M04/M07 A2920 RMK AO2 SNB08 SLP889 P0000 T10391067 TSNO
PASO 142135Z AUTO 02007KT 3SM -SN OVC048 M04/M07 A2921 RMK AO2 SNB08 P0000 T10391067 TSNO
PASO 142121Z AUTO 01007KT 2 1/2SM -SN OVC047 M04/M07 A2921 RMK AO2 SNB08 P0000 T10391067 TSNO
PASO 142053Z AUTO 00000KT 6SM BR OVC048 M06/M07 A2921 RMK AO2 SNB02E42 SLP893 P0000 60000 T10561067 58012 TSNO
PASO 141953Z AUTO 00000KT 9SM OVC055 M06/M07 A2923 RMK AO2 SLP899 T10611072 TSNO
PASO 141924Z AUTO 15003KT 10SM SCT014 BKN060 OVC080 M07/M08 A2924 RMK AO2 T10671083 TSNO
PASO 141853Z AUTO VRB03KT 10SM OVC013 M07/M09 A2925 RMK AO2 SLP903 T10721089 TSNO
PASO 141820Z AUTO 00000KT 10SM BKN014 OVC090 M08/M09 A2925 RMK AO2 T10781094 TSNO
PASO 141753Z AUTO 00000KT 10SM FEW090 M08/M09 A2925 RMK AO2 SLP905 60000 I1000 I6000 T10781094 11044 21083 56007 TSNO
PASO 141653Z AUTO 00000KT 10SM OVC034 M08/M09 A2925 RMK AO2 SLP906 T10781094 TSNO
PASO 141625Z AUTO 00000KT 10SM SCT012 SCT038 BKN110 M08/M09 A2926 RMK AO2 T10781094 TSNO
PASO 141601Z AUTO 00000KT 10SM BKN012 BKN041 BKN120 M08/M10 A2926 RMK AO2 T10831100 TSNO
PASO 141553Z AUTO 21003KT 10SM SCT012 BKN033 BKN120 M08/M10 A2926 RMK AO2 SLP910 I1000 T10831100 TSNO
PASO 141453Z AUTO 00000KT 10SM SCT014 BKN035 BKN110 M08/M10 A2927 RMK AO2 SLP912 60000 I1000 I3000 T10781100 58006 TSNO
PASO 141353Z AUTO 00000KT 10SM CLR M07/M09 A2928 RMK AO2 SLP916 I1000 T10721094 TSNO
PASO 141253Z AUTO 00000KT 10SM CLR M06/M08 A2928 RMK AO2 SNE16 SLP916 P0000 I1000 T10611083 TSNO
PASO 141220Z AUTO 00000KT 7SM SCT014 OVC090 M06/M07 A2929 RMK AO2 SNE16 P0000 T10561072 TSNO
PASO 141208Z AUTO 00000KT 3SM -SN BR BKN012 OVC100 M05/M07 A2929 RMK AO2 P0000 T10501067 TSNO
PASO 141203Z AUTO 00000KT 1 3/4SM -SN BR OVC012 M05/M07 A2929 RMK AO2 P0000 T10501067 TSNO
PASO 141153Z AUTO 00000KT 3/4SM -SN BR VV012 M04/M06 A2929 RMK AO2 SLP919 P0004 60009 70013 T10441061 11044 21056 58003 TSNO
PASO 141142Z AUTO 00000KT 1/2SM SN FZFG VV014 M04/M07 A2929 RMK AO2 P0003 T10441067 TSNO
PASO 141120Z AUTO 00000KT 1SM -SN BR VV015 M05/M06 A2930 RMK AO2 P0002 T10501061 TSNO
PASO 141113Z AUTO 00000KT 3/4SM -SN BR VV011 M05/M06 A2930 RMK AO2 P0001 T10501061 TSNO
PASO 141053Z AUTO 00000KT 1/2SM SN FZFG VV009 M05/M07 A2930 RMK AO2 SNB20 SLP921 P0003 T10501067 TSNO
PASO 141046Z AUTO 00000KT 3/4SM -SN BR VV011 M05/M07 A2930 RMK AO2 SNB20 P0002 T10501067 TSNO
PASO 141038Z AUTO 00000KT 3/4SM -SN BR VV016 M04/M07 A2930 RMK AO2 SNB20 P0001 T10441067 TSNO
PASO 141026Z AUTO 03004KT 1 3/4SM -SN BKN022 OVC030 M04/M07 A2930 RMK AO2 SNB20 P0000 T10441072 TSNO
PASO 141005Z AUTO 03005KT 10SM SCT015 BKN023 OVC033 M04/M07 A2930 RMK AO2 T10441072 TSNO
PASO 140953Z AUTO VRB03KT 10SM BKN014 OVC021 M04/M07 A2930 RMK AO2 SNE31 SLP923 P0000 T10441072 TSNO
PASO 140853Z AUTO 02005KT 4SM -SN BR BKN013 OVC020 M05/M07 A2930 RMK AO2 SLP922 P0000 60002 T10501072 410391067 58002 TSNO
PASO 140841Z AUTO 00000KT 4SM -SN BR BKN013 OVC046 M05/M07 A2931 RMK AO2 P0000 T10501067 TSNO
PASO 140753Z AUTO 00000KT 6SM -SN BR OVC040 M06/M07 A2931 RMK AO2 SNE18B34 SLP925 P0000 T10561072 TSNO
PASO 140704Z AUTO 00000KT 3SM -SN BR BKN031 OVC043 M06/M07 A2931 RMK AO2 P0000 T10561072 TSNO
PASO 140653Z AUTO 16003KT 2 1/2SM -SN BR OVC021 M06/M07 A2931 RMK AO2 SLP924 P0002 T10561072 TSNO
PASO 140650Z AUTO 00000KT 2 1/2SM -SN BR OVC021 M06/M07 A2931 RMK AO2 P0002 TSNO
PASO 140638Z AUTO 00000KT 1 1/2SM -SN BR OVC017 M06/M07 A2931 RMK AO2 P0002 T10561072 TSNO
PASO 140617Z AUTO 00000KT 3/4SM -SN BR VV013 M06/M07 A2931 RMK AO2 P0001 T10561072 TSNO
PASO 140607Z AUTO 00000KT 1SM -SN BR VV015 M06/M08 A2931 RMK AO2 P0000 T10561078 TSNO
PASO 140553Z AUTO 00000KT 1SM -SN BR VV014 M06/M07 A2931 RMK AO2 SLP926 P0004 60004 T10561072 11050 21067 58005 TSNO
PASO 140543Z AUTO 00000KT 1SM -SN BR VV013 M06/M08 A2931 RMK AO2 P0003 T10561078 TSNO
PASO 140500Z AUTO 19003KT 3/4SM -SN BR VV014 M06/M08 A2932 RMK AO2 P0000 T10561078 TSNO
PASO 140453Z AUTO 18004KT 1SM -SN VV017 M06/M08 A2933 RMK AO2 SNB28 SLP931 P0000 T10561083 TSNO
PASO 140449Z AUTO 17005KT 1SM -SN VV019 M06/M09 A2933 RMK AO2 SNB28 P0000 TSNO
PASO 140440Z AUTO 18003KT 2 1/2SM -SN OVC026 M06/M09 A2932 RMK AO2 SNB28 P0000 T10561094 TSNO
PASO 140353Z AUTO 00000KT 10SM OVC030 M06/M11 A2933 RMK AO2 SLP932 T10561111 TSNO
PASO 140253Z AUTO 22003KT 10SM OVC045 M06/M11 A2934 RMK AO2 SLP936 T10561111 58002 TSNO
PASO 140153Z AUTO 00000KT 10SM FEW080 SCT100 BKN120 M06/M12 A2935 RMK AO2 SLP939 T10611122 TSNO
PASO 140053Z AUTO 18005KT 10SM CLR M07/M12 A2936 RMK AO2 SLP942 T10671117 TSNO
PASO 132353Z AUTO 20004KT 10SM CLR M06/M12 A2935 RMK AO2 SLP938 T10561117 11044 21061 58001 TSNO